createdAt,value
2022-10-19T00:02:24.000Z,4.33
2022-10-19T00:07:24.000Z,4.03
2022-10-19T00:12:25.000Z,3.72
2022-10-19T00:17:24.000Z,3.61
2022-10-19T00:22:24.000Z,3.71
2022-10-19T00:27:25.000Z,3.58
2022-10-19T00:37:24.000Z,3.45
2022-10-19T00:42:25.000Z,3.66
2022-10-19T00:47:24.000Z,3.76
2022-10-19T00:52:25.000Z,4.14
2022-10-19T00:57:24.000Z,4.32
2022-10-19T01:02:24.000Z,3.87
2022-10-19T01:07:25.000Z,3.58
2022-10-19T01:12:24.000Z,3.43
2022-10-19T01:17:25.000Z,3.47
2022-10-19T01:22:25.000Z,3.2
2022-10-19T01:27:25.000Z,3.09
2022-10-19T01:32:24.000Z,4.02
2022-10-19T01:37:25.000Z,3.59
2022-10-19T01:42:25.000Z,3.47
2022-10-19T01:47:24.000Z,3.36
2022-10-19T01:52:24.000Z,3
2022-10-19T01:57:25.000Z,2.96
2022-10-19T02:02:24.000Z,2.89
2022-10-19T02:07:24.000Z,3.01
2022-10-19T02:12:25.000Z,2.93
2022-10-19T02:17:24.000Z,2.84
2022-10-19T02:22:25.000Z,3.14
2022-10-19T02:27:25.000Z,3.02
2022-10-19T02:32:25.000Z,4.4
2022-10-19T02:37:25.000Z,5.26
2022-10-19T02:42:24.000Z,5.86
2022-10-19T02:47:24.000Z,5.42
2022-10-19T02:52:25.000Z,5.29
2022-10-19T02:57:24.000Z,5.21
2022-10-19T03:02:24.000Z,4.85
2022-10-19T03:07:25.000Z,5.02
2022-10-19T03:12:24.000Z,4.87
2022-10-19T03:17:25.000Z,4.38
2022-10-19T03:22:24.000Z,4.02
2022-10-19T03:27:24.000Z,4.12
2022-10-19T03:32:24.000Z,4
2022-10-19T03:37:24.000Z,4.11
2022-10-19T03:42:24.000Z,4.4
2022-10-19T03:47:24.000Z,5.22
2022-10-19T03:52:24.000Z,5.01
2022-10-19T03:57:25.000Z,4.88
2022-10-19T04:02:24.000Z,4.82
2022-10-19T04:07:25.000Z,4.72
2022-10-19T04:12:24.000Z,5.1
2022-10-19T04:22:24.000Z,5.82
2022-10-19T04:27:25.000Z,5.94
2022-10-19T04:32:24.000Z,5.72
2022-10-19T04:42:24.000Z,6.56
2022-10-19T04:47:25.000Z,6.92
2022-10-19T04:52:24.000Z,7.43
2022-10-19T04:57:25.000Z,7.61
2022-10-19T05:02:24.000Z,7.33
2022-10-19T05:07:24.000Z,6.56
2022-10-19T05:12:24.000Z,6.72
2022-10-19T05:17:24.000Z,6.88
2022-10-19T05:22:24.000Z,6.9
2022-10-19T05:27:24.000Z,7.45
2022-10-19T05:32:25.000Z,8.2
2022-10-19T05:37:24.000Z,8.4
2022-10-19T05:42:25.000Z,8.29
2022-10-19T05:47:24.000Z,9.13
2022-10-19T05:52:25.000Z,9.53
2022-10-19T05:57:23.000Z,7.95
2022-10-19T06:02:24.000Z,8.75
2022-10-19T06:07:24.000Z,8
2022-10-19T06:12:25.000Z,7.89
2022-10-19T06:17:24.000Z,8.65
2022-10-19T06:22:24.000Z,9.02
2022-10-19T06:27:25.000Z,9.53
2022-10-19T06:32:25.000Z,10.69
2022-10-19T06:37:24.000Z,11.49
2022-10-19T06:42:24.000Z,10.37
2022-10-19T06:47:24.000Z,10.43
2022-10-19T06:52:24.000Z,9.81
2022-10-19T06:57:24.000Z,7.44
2022-10-19T07:02:24.000Z,8.66
2022-10-19T07:07:24.000Z,7.99
2022-10-19T07:12:24.000Z,8.35
2022-10-19T07:17:24.000Z,11.03
2022-10-19T07:22:24.000Z,11.47
2022-10-19T07:27:24.000Z,10.09
2022-10-19T07:32:24.000Z,12
2022-10-19T07:37:25.000Z,12.93
2022-10-19T07:42:25.000Z,11.09
2022-10-19T07:47:24.000Z,9.48
2022-10-19T07:52:24.000Z,9.39
2022-10-19T07:57:24.000Z,9.67
2022-10-19T08:02:24.000Z,9.94
2022-10-19T08:07:24.000Z,10.98
2022-10-19T08:12:24.000Z,11.57
2022-10-19T08:17:25.000Z,10.89
2022-10-19T08:22:25.000Z,11.12
2022-10-19T08:27:24.000Z,11.09
2022-10-19T08:32:24.000Z,10.87
2022-10-19T08:37:25.000Z,11.19
2022-10-19T08:42:24.000Z,11.38
2022-10-19T08:47:24.000Z,13.73
2022-10-19T08:52:24.000Z,11.82
2022-10-19T09:02:24.000Z,10.49
2022-10-19T09:07:25.000Z,8.9
2022-10-19T09:12:24.000Z,12.36
2022-10-19T09:17:24.000Z,8.97
2022-10-19T09:22:25.000Z,8.45
2022-10-19T09:27:24.000Z,7.96
2022-10-19T09:32:25.000Z,7.27
2022-10-19T09:37:25.000Z,6.52
2022-10-19T09:42:24.000Z,6.37
2022-10-19T09:47:24.000Z,6.33
2022-10-19T09:52:24.000Z,6.59
2022-10-19T10:02:25.000Z,7.44
2022-10-19T10:07:24.000Z,6.77
2022-10-19T10:12:24.000Z,6.28
2022-10-19T10:17:24.000Z,7.99
2022-10-19T10:22:25.000Z,9.19
2022-10-19T10:27:25.000Z,9.54
2022-10-19T10:32:25.000Z,11.3
2022-10-19T10:37:24.000Z,12.69
2022-10-19T10:42:25.000Z,13.24
2022-10-19T10:47:25.000Z,11.55
2022-10-19T10:52:24.000Z,9.01
2022-10-19T10:57:25.000Z,8.84
2022-10-19T11:07:24.000Z,9.28
2022-10-19T11:12:25.000Z,8.03
2022-10-19T11:17:24.000Z,7.84
2022-10-19T11:22:24.000Z,9.7
2022-10-19T11:27:24.000Z,7.27
2022-10-19T11:32:25.000Z,7.37
2022-10-19T11:37:24.000Z,7.49
2022-10-19T11:42:25.000Z,7.21
2022-10-19T11:52:24.000Z,6.91
2022-10-19T11:57:25.000Z,7.76
2022-10-19T12:02:24.000Z,11.71
2022-10-19T12:07:24.000Z,13.7
2022-10-19T12:12:25.000Z,12.52
2022-10-19T12:17:25.000Z,10.45
2022-10-19T12:22:25.000Z,8.56
2022-10-19T12:27:24.000Z,8.56
2022-10-19T12:32:25.000Z,6.97
2022-10-19T12:37:25.000Z,6.97
2022-10-19T12:42:25.000Z,7.2
2022-10-19T12:47:24.000Z,6.95
2022-10-19T12:52:25.000Z,6.95
2022-10-19T12:57:24.000Z,7.4
2022-10-19T13:02:25.000Z,6.89
2022-10-19T13:07:24.000Z,6.65
2022-10-19T13:12:24.000Z,6.57
2022-10-19T13:17:24.000Z,6.6
2022-10-19T13:22:24.000Z,7.14
2022-10-19T13:27:24.000Z,7.18
2022-10-19T13:32:25.000Z,6.83
2022-10-19T13:37:25.000Z,7.6
2022-10-19T13:42:25.000Z,8.73
2022-10-19T13:52:24.000Z,9.67
2022-10-19T13:57:24.000Z,9.17
2022-10-19T14:02:24.000Z,7.56
2022-10-19T14:07:25.000Z,7.18
2022-10-19T14:12:25.000Z,6.9
2022-10-19T14:17:24.000Z,6.92
2022-10-19T14:22:24.000Z,5.77
2022-10-19T14:27:24.000Z,4.87
2022-10-19T14:32:24.000Z,4.9
2022-10-19T14:42:24.000Z,5.95
2022-10-19T14:47:25.000Z,6.19
2022-10-19T14:52:24.000Z,5.56
2022-10-19T14:57:24.000Z,5.11
2022-10-19T15:02:24.000Z,5.7
2022-10-19T15:07:24.000Z,5.33
2022-10-19T15:12:24.000Z,5.26
2022-10-19T15:17:24.000Z,5.5
2022-10-19T15:22:24.000Z,5.55
2022-10-19T15:27:24.000Z,5.32
2022-10-19T15:32:25.000Z,5.28
2022-10-19T15:42:25.000Z,5.97
2022-10-19T15:47:24.000Z,5.43
2022-10-19T15:52:24.000Z,5.27
2022-10-19T15:57:24.000Z,5.41
2022-10-19T16:02:25.000Z,4.79
2022-10-19T16:07:24.000Z,4.99
2022-10-19T16:12:25.000Z,5.25
2022-10-19T16:17:24.000Z,4.94
2022-10-19T16:22:24.000Z,4.16
2022-10-19T16:27:24.000Z,3.81
2022-10-19T16:37:24.000Z,4.4
2022-10-19T16:42:25.000Z,4
2022-10-19T16:47:24.000Z,4.05
2022-10-19T16:52:25.000Z,4.18
2022-10-19T17:02:24.000Z,4.15
2022-10-19T17:07:24.000Z,4.94
2022-10-19T17:12:24.000Z,4.74
2022-10-19T17:17:24.000Z,5.24
2022-10-19T17:22:24.000Z,5.16
2022-10-19T17:27:24.000Z,5.23
2022-10-19T17:32:24.000Z,5.16
2022-10-19T17:37:24.000Z,5.32
2022-10-19T17:42:25.000Z,5.72
2022-10-19T17:47:24.000Z,6.65
2022-10-19T17:52:24.000Z,6.53
2022-10-19T17:57:25.000Z,5.27
2022-10-19T18:02:25.000Z,5
2022-10-19T18:07:24.000Z,5.45
2022-10-19T18:12:24.000Z,5.03
2022-10-19T18:17:25.000Z,4.72
2022-10-19T18:22:24.000Z,5.08
2022-10-19T18:32:25.000Z,4.93
2022-10-19T18:37:24.000Z,4.91
2022-10-19T18:42:25.000Z,4.64
2022-10-19T18:47:25.000Z,4.98
2022-10-19T18:52:24.000Z,4.82
2022-10-19T19:02:25.000Z,5.17
2022-10-19T19:07:24.000Z,4.5
2022-10-19T19:12:24.000Z,4.27
2022-10-19T19:17:24.000Z,4.06
2022-10-19T19:22:24.000Z,3.98
2022-10-19T19:32:24.000Z,4.38
2022-10-19T19:37:24.000Z,4.38
2022-10-19T19:42:24.000Z,4.6
2022-10-19T19:47:24.000Z,4.49
2022-10-19T19:52:24.000Z,4.55
2022-10-19T19:57:25.000Z,4.36
2022-10-19T20:02:25.000Z,3.92
2022-10-19T20:12:24.000Z,5.41
2022-10-19T20:17:24.000Z,4.47
2022-10-19T20:22:24.000Z,3.94
2022-10-19T20:27:25.000Z,3.9
2022-10-19T20:32:25.000Z,3.56
2022-10-19T20:37:24.000Z,3.49
2022-10-19T20:42:25.000Z,3.4
2022-10-19T20:47:24.000Z,4.02
2022-10-19T20:52:25.000Z,4.62
2022-10-19T20:57:25.000Z,4.92
2022-10-19T21:02:24.000Z,5.04
2022-10-19T21:07:25.000Z,3.64
2022-10-19T21:12:24.000Z,3.26
2022-10-19T21:17:25.000Z,3.42
2022-10-19T21:22:24.000Z,4.09
2022-10-19T21:27:24.000Z,4.25
2022-10-19T21:32:24.000Z,3.62
2022-10-19T21:37:24.000Z,3.67
2022-10-19T21:42:24.000Z,3.77
2022-10-19T21:47:24.000Z,3.65
2022-10-19T21:52:24.000Z,3.69
2022-10-19T21:57:25.000Z,3.89
2022-10-19T22:02:24.000Z,3.95
2022-10-19T22:07:24.000Z,4
2022-10-19T22:12:24.000Z,4.12
2022-10-19T22:17:25.000Z,4.15
2022-10-19T22:22:24.000Z,3.88
2022-10-19T22:27:24.000Z,4.01
2022-10-19T22:32:24.000Z,4.05
2022-10-19T22:37:25.000Z,4.04
2022-10-19T22:42:25.000Z,3.92
2022-10-19T22:47:25.000Z,4.03
2022-10-19T22:52:24.000Z,4.03
2022-10-19T22:57:25.000Z,4.01
2022-10-19T23:02:24.000Z,3.98
2022-10-19T23:07:24.000Z,3.82
2022-10-19T23:12:25.000Z,3.49
2022-10-19T23:22:24.000Z,3.29
2022-10-19T23:27:25.000Z,3.23
2022-10-19T23:32:24.000Z,3.05
2022-10-19T23:37:24.000Z,2.87
2022-10-19T23:42:24.000Z,2.77
2022-10-19T23:47:25.000Z,2.87
2022-10-19T23:52:24.000Z,3.1
2022-10-19T23:57:25.000Z,3.35
